createdAt,value
2023-04-18T00:02:08.174Z,94570.00
2023-04-18T00:04:38.659Z,94566.63
2023-04-18T00:07:06.842Z,94573.84
2023-04-18T00:09:34.768Z,94575.00
2023-04-18T00:12:05.091Z,94576.88
2023-04-18T00:14:34.504Z,94576.88
2023-04-18T00:17:03.192Z,94579.25
2023-04-18T00:19:31.270Z,94578.38
2023-04-18T00:22:00.025Z,94573.53
2023-04-18T00:24:28.174Z,94580.75
2023-04-18T00:26:57.292Z,94578.34
2023-04-18T00:29:27.337Z,94581.34
2023-04-18T00:31:55.708Z,94576.25
2023-04-18T00:34:24.755Z,94560.34
2023-04-18T00:36:53.077Z,94576.00
2023-04-18T00:39:20.994Z,94558.31
2023-04-18T00:41:49.224Z,94567.94
2023-04-18T00:44:18.047Z,94572.44
2023-04-18T00:46:47.454Z,94567.34
2023-04-18T00:49:15.926Z,94565.50
2023-04-18T00:51:44.441Z,94564.91
2023-04-18T00:54:13.691Z,94554.13
2023-04-18T00:56:42.124Z,94559.78
2023-04-18T00:59:11.495Z,94560.22
2023-04-18T01:01:41.856Z,94557.84
2023-04-18T01:04:11.796Z,94565.22
2023-04-18T01:06:40.849Z,94559.81
2023-04-18T01:09:09.764Z,94553.38
2023-04-18T01:11:38.040Z,94543.47
2023-04-18T01:14:08.388Z,94558.13
2023-04-18T01:16:37.014Z,94547.72
2023-04-18T01:19:06.400Z,94524.97
2023-04-18T01:21:37.617Z,94548.63
2023-04-18T01:24:12.037Z,94547.41
2023-04-18T01:26:41.281Z,94556.72
2023-04-18T01:29:09.233Z,94551.72
2023-04-18T01:31:37.908Z,94550.94
2023-04-18T01:34:07.078Z,94549.00
2023-04-18T01:36:35.547Z,94547.97
2023-04-18T01:39:04.123Z,94539.13
2023-04-18T01:41:33.715Z,94535.69
2023-04-18T01:44:02.124Z,94534.19
2023-04-18T01:46:30.573Z,94541.25
2023-04-18T01:48:59.226Z,94534.19
2023-04-18T01:51:28.492Z,94533.59
2023-04-18T01:53:56.800Z,94531.19
2023-04-18T01:56:25.153Z,94533.44
2023-04-18T01:58:54.511Z,94526.41
2023-04-18T02:01:22.895Z,94534.53
2023-04-18T02:03:51.150Z,94527.66
2023-04-18T02:06:19.417Z,94538.78
2023-04-18T02:08:47.977Z,94534.91
2023-04-18T02:11:16.156Z,94548.38
2023-04-18T02:13:44.799Z,94553.22
2023-04-18T02:16:15.036Z,94541.97
2023-04-18T02:18:45.207Z,94545.41
2023-04-18T02:21:13.550Z,94550.81
2023-04-18T02:23:41.760Z,94562.84
2023-04-18T02:26:10.304Z,94545.13
2023-04-18T02:28:39.302Z,94548.13
2023-04-18T02:31:14.548Z,94552.91
2023-04-18T02:33:45.260Z,94556.81
2023-04-18T02:36:13.936Z,94552.47
2023-04-18T02:38:42.111Z,94556.81
2023-04-18T02:41:15.495Z,94564.31
2023-04-18T02:43:45.015Z,94555.31
2023-04-18T02:46:13.411Z,94561.03
2023-04-18T02:48:41.653Z,94559.22
2023-04-18T02:51:11.295Z,94566.75
2023-04-18T02:53:39.470Z,94552.94
2023-04-18T02:56:08.625Z,94567.03
2023-04-18T02:58:37.523Z,94561.47
2023-04-18T03:01:05.885Z,94561.34
2023-04-18T03:03:33.917Z,94569.16
2023-04-18T03:06:01.929Z,94566.16
2023-04-18T03:08:31.466Z,94565.84
2023-04-18T03:10:59.690Z,94576.06
2023-04-18T03:13:27.909Z,94570.81
2023-04-18T03:15:57.272Z,94564.97
2023-04-18T03:18:25.453Z,94576.97
2023-04-18T03:20:53.760Z,94591.22
2023-04-18T03:23:21.990Z,94592.59
2023-04-18T03:25:51.677Z,94591.69
2023-04-18T03:28:21.320Z,94596.00
2023-04-18T03:30:50.772Z,94594.84
2023-04-18T03:33:18.702Z,94582.06
2023-04-18T03:35:47.792Z,94608.44
2023-04-18T03:38:16.316Z,94606.69
2023-04-18T03:40:44.692Z,94598.44
2023-04-18T03:43:14.013Z,94598.25
2023-04-18T03:45:42.232Z,94602.00
2023-04-18T03:48:10.213Z,94602.16
2023-04-18T03:50:40.695Z,94603.03
2023-04-18T03:53:08.574Z,94599.94
2023-04-18T03:55:39.287Z,94610.28
2023-04-18T03:58:07.548Z,94604.56
2023-04-18T04:00:37.419Z,94604.28
2023-04-18T04:03:05.535Z,94601.91
2023-04-18T04:05:33.891Z,94606.09
2023-04-18T04:08:01.841Z,94601.88
2023-04-18T04:10:29.860Z,94606.22
2023-04-18T04:12:57.773Z,94603.66
2023-04-18T04:15:26.045Z,94602.94
2023-04-18T04:17:55.533Z,94609.34
2023-04-18T04:20:24.150Z,94613.28
2023-04-18T04:22:52.589Z,94609.97
2023-04-18T04:25:23.898Z,94608.66
2023-04-18T04:27:53.748Z,94618.69
2023-04-18T04:30:22.836Z,94601.91
2023-04-18T04:32:51.252Z,94618.06
2023-04-18T04:35:21.087Z,94628.56
2023-04-18T04:37:51.242Z,94616.28
2023-04-18T04:40:19.512Z,94585.84
2023-04-18T04:42:49.256Z,94631.59
2023-04-18T04:45:17.522Z,94632.78
2023-04-18T04:47:45.643Z,94625.44
2023-04-18T04:50:15.806Z,94636.09
2023-04-18T04:52:45.173Z,94638.50
2023-04-18T04:55:13.327Z,94637.75
2023-04-18T04:57:41.865Z,94636.38
2023-04-18T05:00:11.324Z,94626.63
2023-04-18T05:02:40.542Z,94637.59
2023-04-18T05:05:09.503Z,94635.94
2023-04-18T05:07:37.586Z,94625.28
2023-04-18T05:10:07.617Z,94638.75
2023-04-18T05:12:35.657Z,94636.03
2023-04-18T05:15:03.722Z,94642.81
2023-04-18T05:17:32.311Z,94648.66
2023-04-18T05:20:00.493Z,94639.78
2023-04-18T05:22:28.657Z,94645.81
2023-04-18T05:24:58.092Z,94629.16
2023-04-18T05:27:27.901Z,94639.06
2023-04-18T05:29:56.466Z,94636.75
2023-04-18T05:32:25.077Z,94627.59
2023-04-18T05:34:53.146Z,94644.28
2023-04-18T05:37:22.475Z,94637.50
2023-04-18T05:39:50.638Z,94635.72
2023-04-18T05:42:18.589Z,94642.28
2023-04-18T05:44:48.325Z,94627.09
2023-04-18T05:47:16.628Z,94640.72
2023-04-18T05:49:44.916Z,94635.47
2023-04-18T05:52:12.800Z,94644.03
2023-04-18T05:54:41.522Z,94652.69
2023-04-18T05:57:09.740Z,94606.72
2023-04-18T05:59:37.862Z,94647.53
2023-04-18T06:02:13.391Z,94644.00
2023-04-18T06:04:42.491Z,94648.44
2023-04-18T06:07:11.403Z,94641.81
2023-04-18T06:09:39.461Z,94631.03
2023-04-18T06:12:07.659Z,94629.94
2023-04-18T06:14:35.600Z,94625.84
2023-04-18T06:17:03.720Z,94625.09
2023-04-18T06:19:33.239Z,94626.81
2023-04-18T06:22:01.516Z,94555.59
2023-04-18T06:24:31.214Z,94621.28
2023-04-18T06:26:59.378Z,94614.13
2023-04-18T06:29:30.507Z,94623.69
2023-04-18T06:31:58.690Z,94604.41
2023-04-18T06:34:26.927Z,94608.22
2023-04-18T06:36:57.663Z,94611.94
2023-04-18T06:39:25.853Z,94613.16
2023-04-18T06:41:53.810Z,94612.25
2023-04-18T06:44:21.717Z,94614.50
2023-04-18T06:46:50.396Z,94610.47
2023-04-18T06:49:18.554Z,94595.69
2023-04-18T06:51:46.582Z,94606.41
2023-04-18T06:54:16.223Z,94608.09
2023-04-18T06:56:44.198Z,94610.94
2023-04-18T06:59:12.576Z,94612.50
2023-04-18T07:01:42.765Z,94608.88
2023-04-18T07:04:11.012Z,94608.69
2023-04-18T07:06:39.805Z,94614.75
2023-04-18T07:09:07.820Z,94614.09
2023-04-18T07:11:37.196Z,94615.41
2023-04-18T07:14:05.272Z,94613.97
2023-04-18T07:16:33.609Z,94606.75
2023-04-18T07:19:01.767Z,94610.66
2023-04-18T07:21:29.819Z,94605.22
2023-04-18T07:23:57.840Z,94592.72
2023-04-18T07:26:27.706Z,94600.81
2023-04-18T07:28:57.193Z,94599.81
2023-04-18T07:31:26.092Z,94609.31
2023-04-18T07:33:54.210Z,94567.47
2023-04-18T07:36:22.836Z,94603.09
2023-04-18T07:38:52.141Z,94607.56
2023-04-18T07:41:21.565Z,94606.72
2023-04-18T07:43:49.601Z,94618.91
2023-04-18T07:46:19.665Z,94615.03
2023-04-18T07:48:47.833Z,94605.25
2023-04-18T07:51:15.934Z,94609.81
2023-04-18T07:53:44.898Z,94613.66
2023-04-18T07:56:14.601Z,94611.00
2023-04-18T07:58:43.701Z,94619.16
2023-04-18T08:01:14.225Z,94626.66
2023-04-18T08:03:43.760Z,94622.88
2023-04-18T08:06:12.018Z,94588.72
2023-04-18T08:08:40.058Z,94630.97
2023-04-18T08:11:08.101Z,94633.56
2023-04-18T08:13:36.511Z,94632.59
2023-04-18T08:16:04.569Z,94632.84
2023-04-18T08:18:32.422Z,94631.88
2023-04-18T08:21:01.724Z,94623.06
2023-04-18T08:23:30.286Z,94619.81
2023-04-18T08:25:58.256Z,94623.88
2023-04-18T08:28:26.245Z,94630.91
2023-04-18T08:30:55.473Z,94631.78
2023-04-18T08:33:24.748Z,94627.06
2023-04-18T08:35:52.977Z,94610.72
2023-04-18T08:38:22.863Z,94640.22
2023-04-18T08:40:50.725Z,94627.28
2023-04-18T08:43:18.768Z,94628.91
2023-04-18T08:45:47.386Z,94601.28
2023-04-18T08:48:16.922Z,94627.69
2023-04-18T08:50:46.157Z,94622.22
2023-04-18T08:53:14.592Z,94622.13
2023-04-18T08:55:44.644Z,94624.03
2023-04-18T08:58:12.918Z,94619.00
2023-04-18T09:00:41.813Z,94620.28
2023-04-18T09:03:15.629Z,94579.06
2023-04-18T09:05:43.721Z,94610.00
2023-04-18T09:08:24.165Z,94620.78
2023-04-18T09:10:53.530Z,94610.38
2023-04-18T09:13:39.974Z,94624.63
2023-04-18T09:16:08.447Z,94616.78
2023-04-18T09:18:41.249Z,94620.41
2023-04-18T09:21:20.001Z,94630.81
2023-04-18T09:23:50.629Z,94625.66
2023-04-18T09:26:36.562Z,94619.84
2023-04-18T09:29:05.244Z,94616.25
2023-04-18T09:31:33.952Z,94616.72
2023-04-18T09:34:03.143Z,94624.94
2023-04-18T09:36:31.422Z,94620.50
2023-04-18T09:38:59.347Z,94615.47
2023-04-18T09:41:30.600Z,94624.03
2023-04-18T09:44:14.598Z,94620.81
2023-04-18T09:46:46.596Z,94613.38
2023-04-18T09:49:16.892Z,94619.84
2023-04-18T09:51:46.380Z,94616.81
2023-04-18T09:54:16.809Z,94557.31
2023-04-18T09:56:50.532Z,94620.09
2023-04-18T09:59:34.973Z,94611.38
2023-04-18T10:02:04.569Z,94612.31
2023-04-18T10:04:34.016Z,94614.91
2023-04-18T10:07:03.612Z,94616.63
2023-04-18T10:09:34.598Z,94616.06
2023-04-18T10:12:04.353Z,94605.72
2023-04-18T10:14:35.348Z,94604.06
2023-04-18T10:17:03.478Z,94610.94
2023-04-18T10:19:31.940Z,94601.81
2023-04-18T10:22:03.239Z,94581.09
2023-04-18T10:24:48.408Z,94604.75
2023-04-18T10:27:18.450Z,94595.69
2023-04-18T10:29:50.932Z,94586.34
2023-04-18T10:32:20.420Z,94580.63
2023-04-18T10:34:48.900Z,94590.16
2023-04-18T10:37:19.104Z,94591.75
2023-04-18T10:39:57.318Z,94589.72
2023-04-18T10:43:00.645Z,94591.53
2023-04-18T10:45:31.775Z,94596.91
2023-04-18T10:48:25.605Z,94592.75
2023-04-18T10:51:23.710Z,94590.06
2023-04-18T10:53:55.506Z,94594.38
2023-04-18T10:56:26.164Z,94528.75
2023-04-18T10:58:56.243Z,94580.91
2023-04-18T11:01:31.719Z,94586.13
2023-04-18T11:04:01.601Z,94585.66
2023-04-18T11:06:31.365Z,94588.59
2023-04-18T11:09:12.130Z,94580.38
2023-04-18T11:11:40.050Z,94583.72
2023-04-18T11:14:10.166Z,94573.91
2023-04-18T11:16:38.453Z,94564.31
2023-04-18T11:19:24.604Z,94566.06
2023-04-18T11:21:53.530Z,94561.03
2023-04-18T11:24:24.958Z,94555.22
2023-04-18T11:26:56.229Z,94570.00
2023-04-18T11:29:25.791Z,94554.97
2023-04-18T11:31:58.541Z,94562.44
2023-04-18T11:34:30.869Z,94540.22
2023-04-18T11:36:59.686Z,94557.25
2023-04-18T11:39:28.944Z,94569.28
2023-04-18T11:41:58.240Z,94580.44
2023-04-18T11:44:28.312Z,94590.06
2023-04-18T11:46:56.841Z,94586.03
2023-04-18T11:49:28.980Z,94582.84
2023-04-18T11:51:57.565Z,94584.94
2023-04-18T11:54:41.422Z,94578.75
2023-04-18T11:57:21.551Z,94570.31
2023-04-18T11:59:52.918Z,94565.97
2023-04-18T12:02:22.758Z,94575.13
2023-04-18T12:04:56.086Z,94529.16
2023-04-18T12:07:40.223Z,94577.00
2023-04-18T12:10:10.219Z,94526.50
2023-04-18T12:12:38.326Z,94583.81
2023-04-18T12:15:10.610Z,94580.69
2023-04-18T12:17:39.452Z,94580.63
2023-04-18T12:20:10.115Z,94560.00
2023-04-18T12:22:43.635Z,94598.44
2023-04-18T12:25:27.838Z,94575.44
2023-04-18T12:27:59.456Z,94583.19
2023-04-18T12:30:31.323Z,94582.25
2023-04-18T12:33:02.137Z,94576.88
2023-04-18T12:35:32.086Z,94579.75
2023-04-18T12:38:02.149Z,94572.84
2023-04-18T12:40:30.787Z,94552.84
2023-04-18T12:43:02.134Z,94555.19
2023-04-18T12:45:32.905Z,94580.34
2023-04-18T12:48:00.939Z,94547.22
2023-04-18T12:50:29.001Z,94584.31
2023-04-18T12:53:03.419Z,94520.19
2023-04-18T12:55:32.037Z,94579.44
2023-04-18T12:58:00.296Z,94589.53
2023-04-18T13:00:30.379Z,94578.91
2023-04-18T13:03:01.008Z,94590.88
2023-04-18T13:05:33.694Z,94590.16
2023-04-18T13:08:15.280Z,94594.59
2023-04-18T13:10:44.907Z,94548.28
2023-04-18T13:13:13.282Z,94593.31
2023-04-18T13:15:41.511Z,94590.69
2023-04-18T13:18:11.291Z,94597.59
2023-04-18T13:20:39.441Z,94587.84
2023-04-18T13:23:07.965Z,94582.16
2023-04-18T13:25:36.130Z,94591.25
2023-04-18T13:28:04.435Z,94591.97
2023-04-18T13:30:32.409Z,94580.66
2023-04-18T13:33:00.502Z,94584.88
2023-04-18T13:35:30.135Z,94583.50
2023-04-18T13:37:58.252Z,94582.75
2023-04-18T13:40:26.570Z,94593.94
2023-04-18T13:42:54.683Z,94593.78
2023-04-18T13:45:23.105Z,94589.88
2023-04-18T13:47:51.617Z,94590.53
2023-04-18T13:50:20.449Z,94501.81
2023-04-18T13:52:52.089Z,94591.47
2023-04-18T13:55:20.728Z,94583.19
2023-04-18T13:57:48.986Z,94580.41
2023-04-18T14:00:19.330Z,94580.53
2023-04-18T14:02:47.706Z,94586.91
2023-04-18T14:05:16.042Z,94587.38
2023-04-18T14:07:44.280Z,94596.28
2023-04-18T14:10:14.502Z,94588.78
2023-04-18T14:12:43.348Z,94593.03
2023-04-18T14:15:12.505Z,94588.91
2023-04-18T14:17:41.512Z,94589.19
2023-04-18T14:20:11.116Z,94597.06
2023-04-18T14:22:39.037Z,94600.25
2023-04-18T14:25:08.586Z,94601.94
2023-04-18T14:27:38.694Z,94588.28
2023-04-18T14:30:08.834Z,94602.91
2023-04-18T14:32:37.347Z,94607.75
2023-04-18T14:35:07.197Z,94564.19
2023-04-18T14:37:35.475Z,94573.41
2023-04-18T14:40:05.544Z,94609.63
2023-04-18T14:42:33.673Z,94595.97
2023-04-18T14:45:05.272Z,94603.44
2023-04-18T14:47:35.099Z,94610.38
2023-04-18T14:50:03.048Z,94601.66
2023-04-18T14:52:31.175Z,94615.06
2023-04-18T14:54:59.392Z,94615.06
2023-04-18T14:57:30.457Z,94612.59
2023-04-18T14:59:58.419Z,94618.03
2023-04-18T15:02:28.352Z,94625.59
2023-04-18T15:04:56.782Z,94624.13
2023-04-18T15:07:25.206Z,94634.88
2023-04-18T15:09:53.231Z,94633.72
2023-04-18T15:12:21.390Z,94639.56
2023-04-18T15:14:49.298Z,94636.75
2023-04-18T15:17:17.415Z,94645.16
2023-04-18T15:19:46.821Z,94645.03
2023-04-18T15:22:15.085Z,94634.56
2023-04-18T15:24:43.371Z,94638.19
2023-04-18T15:27:11.945Z,94647.72
2023-04-18T15:29:40.251Z,94640.41
2023-04-18T15:32:09.297Z,94655.53
2023-04-18T15:34:37.309Z,94663.41
2023-04-18T15:37:07.508Z,94655.88
2023-04-18T15:39:35.716Z,94652.88
2023-04-18T15:42:03.701Z,94621.75
2023-04-18T15:44:33.031Z,94670.56
2023-04-18T15:47:01.976Z,94658.22
2023-04-18T15:49:29.910Z,94649.00
2023-04-18T15:51:58.229Z,94660.34
2023-04-18T15:54:27.681Z,94663.09
2023-04-18T15:56:56.228Z,94663.09
2023-04-18T15:59:24.401Z,94663.44
2023-04-18T16:01:52.495Z,94666.44
2023-04-18T16:04:24.190Z,94671.91
2023-04-18T16:06:52.438Z,94673.19
2023-04-18T16:09:20.662Z,94674.41
2023-04-18T16:11:50.095Z,94680.72
2023-04-18T16:14:19.119Z,94675.84
2023-04-18T16:16:47.061Z,94684.13
2023-04-18T16:19:15.280Z,94688.66
2023-04-18T16:21:43.252Z,94691.03
2023-04-18T16:24:11.486Z,94689.25
2023-04-18T16:26:39.553Z,94646.59
2023-04-18T16:29:08.934Z,94685.03
2023-04-18T16:31:36.971Z,94686.66
2023-04-18T16:34:05.394Z,94697.00
2023-04-18T16:36:35.518Z,94667.31
2023-04-18T16:39:04.777Z,94694.91
2023-04-18T16:41:32.773Z,94693.41
2023-04-18T16:44:01.279Z,94696.09
2023-04-18T16:46:32.317Z,94690.69
2023-04-18T16:49:03.317Z,94698.19
2023-04-18T16:51:32.770Z,94704.50
2023-04-18T16:54:02.849Z,94701.34
2023-04-18T16:56:31.499Z,94706.75
2023-04-18T16:58:59.522Z,94701.25
2023-04-18T17:01:27.560Z,94699.41
2023-04-18T17:03:59.376Z,94701.81
2023-04-18T17:06:27.758Z,94698.22
2023-04-18T17:08:55.766Z,94662.50
2023-04-18T17:11:25.019Z,94703.34
2023-04-18T17:13:53.456Z,94707.25
2023-04-18T17:16:21.750Z,94713.56
2023-04-18T17:18:53.536Z,94714.44
2023-04-18T17:21:24.094Z,94715.66
2023-04-18T17:23:52.303Z,94719.56
2023-04-18T17:26:21.181Z,94726.28
2023-04-18T17:28:49.198Z,94719.84
2023-04-18T17:31:17.341Z,94711.13
2023-04-18T17:33:46.156Z,94715.50
2023-04-18T17:36:14.715Z,94716.25
2023-04-18T17:38:48.989Z,94717.44
2023-04-18T17:41:19.745Z,94716.84
2023-04-18T17:43:51.019Z,94716.69
2023-04-18T17:46:19.878Z,94721.94
2023-04-18T17:48:47.834Z,94715.47
2023-04-18T17:51:16.516Z,94712.94
2023-04-18T17:53:45.961Z,94734.97
2023-04-18T17:56:15.016Z,94747.75
2023-04-18T17:58:43.435Z,94741.16
2023-04-18T18:01:15.693Z,94740.84
2023-04-18T18:03:46.574Z,94752.41
2023-04-18T18:06:17.002Z,94747.44
2023-04-18T18:08:46.555Z,94752.25
2023-04-18T18:11:14.454Z,94753.75
2023-04-18T18:13:42.628Z,94756.47
2023-04-18T18:16:10.733Z,94723.88
2023-04-18T18:18:38.992Z,94748.50
2023-04-18T18:21:06.987Z,94748.97
2023-04-18T18:23:35.305Z,94766.97
2023-04-18T18:26:06.710Z,94756.91
2023-04-18T18:28:34.766Z,94762.03
2023-04-18T18:31:02.895Z,94776.88
2023-04-18T18:33:30.932Z,94772.50
2023-04-18T18:35:58.948Z,94777.31
2023-04-18T18:38:27.268Z,94778.03
2023-04-18T18:40:55.502Z,94778.38
2023-04-18T18:43:26.384Z,94778.09
2023-04-18T18:45:54.644Z,94778.53
2023-04-18T18:48:22.734Z,94779.78
2023-04-18T18:50:51.616Z,94726.16
2023-04-18T18:53:19.815Z,94775.88
2023-04-18T18:55:47.824Z,94781.75
2023-04-18T18:58:15.819Z,94785.81
2023-04-18T19:00:45.448Z,94787.75
2023-04-18T19:03:13.690Z,94789.97
2023-04-18T19:05:41.836Z,94790.47
2023-04-18T19:08:09.797Z,94782.94
2023-04-18T19:10:37.875Z,94784.44
2023-04-18T19:13:06.332Z,94772.13
2023-04-18T19:15:34.217Z,94781.13
2023-04-18T19:18:03.557Z,94779.59
2023-04-18T19:20:31.689Z,94782.63
2023-04-18T19:22:59.844Z,94784.09
2023-04-18T19:25:27.856Z,94781.41
2023-04-18T19:27:55.976Z,94779.59
2023-04-18T19:30:25.108Z,94771.81
2023-04-18T19:32:53.001Z,94782.78
2023-04-18T19:35:23.550Z,94794.78
2023-04-18T19:37:51.917Z,94779.66
2023-04-18T19:40:20.195Z,94779.63
2023-04-18T19:42:49.705Z,94786.84
2023-04-18T19:45:17.738Z,94788.66
2023-04-18T19:47:47.636Z,94786.25
2023-04-18T19:50:16.160Z,94785.81
2023-04-18T19:52:45.808Z,94784.75
2023-04-18T19:55:13.673Z,94785.78
2023-04-18T19:57:42.257Z,94781.84
2023-04-18T20:00:13.792Z,94787.53
2023-04-18T20:02:42.620Z,94728.56
2023-04-18T20:05:11.412Z,94783.69
2023-04-18T20:07:39.714Z,94774.66
2023-04-18T20:10:10.834Z,94786.81
2023-04-18T20:12:39.152Z,94777.53
2023-04-18T20:15:09.395Z,94780.22
2023-04-18T20:17:37.749Z,94774.97
2023-04-18T20:20:09.139Z,94773.63
2023-04-18T20:22:38.759Z,94773.63
2023-04-18T20:25:09.193Z,94776.03
2023-04-18T20:27:39.080Z,94777.50
2023-04-18T20:30:08.641Z,94770.59
2023-04-18T20:32:37.027Z,94773.47
2023-04-18T20:35:05.719Z,94767.63
2023-04-18T20:37:36.956Z,94773.47
2023-04-18T20:40:08.553Z,94776.63
2023-04-18T20:42:37.291Z,94780.66
2023-04-18T20:45:11.275Z,94771.81
2023-04-18T20:47:41.261Z,94777.78
2023-04-18T20:50:10.734Z,94782.28
2023-04-18T20:52:38.868Z,94782.88
2023-04-18T20:55:08.582Z,94678.78
2023-04-18T20:57:36.940Z,94781.06
2023-04-18T21:00:10.612Z,94780.31
2023-04-18T21:02:40.216Z,94774.16
2023-04-18T21:05:08.884Z,94777.16
2023-04-18T21:07:37.209Z,94771.91
2023-04-18T21:10:05.729Z,94777.16
2023-04-18T21:12:33.817Z,94783.72
2023-04-18T21:15:02.288Z,94769.94
2023-04-18T21:17:31.819Z,94776.25
2023-04-18T21:19:59.716Z,94761.84
2023-04-18T21:22:27.828Z,94761.09
2023-04-18T21:24:56.148Z,94761.25
2023-04-18T21:27:24.207Z,94762.63
2023-04-18T21:29:53.483Z,94708.69
2023-04-18T21:32:24.247Z,94757.06
2023-04-18T21:34:54.076Z,94760.66
2023-04-18T21:37:22.310Z,94754.66
2023-04-18T21:39:50.274Z,94757.19
2023-04-18T21:42:18.595Z,94764.25
2023-04-18T21:44:46.769Z,94757.66
2023-04-18T21:47:14.684Z,94648.19
2023-04-18T21:49:43.609Z,94758.84
2023-04-18T21:52:13.581Z,94753.28
2023-04-18T21:54:41.964Z,94753.72
2023-04-18T21:57:10.461Z,94760.94
2023-04-18T21:59:38.582Z,94759.13
2023-04-18T22:02:06.894Z,94760.63
2023-04-18T22:04:34.983Z,94748.34
2023-04-18T22:07:03.338Z,94758.97
2023-04-18T22:09:33.908Z,94757.94
2023-04-18T22:12:03.417Z,94757.94
2023-04-18T22:14:32.164Z,94692.13
2023-04-18T22:17:00.554Z,94756.72
2023-04-18T22:19:29.639Z,94745.91
2023-04-18T22:21:58.103Z,94754.03
2023-04-18T22:24:27.245Z,94714.97
2023-04-18T22:26:57.403Z,94731.50
2023-04-18T22:29:25.511Z,94749.50
2023-04-18T22:31:53.583Z,94750.00
2023-04-18T22:34:23.178Z,94749.69
2023-04-18T22:36:51.325Z,94744.91
2023-04-18T22:39:20.492Z,94746.84
2023-04-18T22:41:48.427Z,94745.66
2023-04-18T22:44:18.160Z,94741.16
2023-04-18T22:46:48.260Z,94735.16
2023-04-18T22:49:18.117Z,94739.69
2023-04-18T22:51:46.551Z,94728.25
2023-04-18T22:54:15.034Z,94732.19
2023-04-18T22:56:43.386Z,94733.69
2023-04-18T22:59:11.787Z,94740.59
2023-04-18T23:01:41.286Z,94722.28
2023-04-18T23:04:09.723Z,94726.34
2023-04-18T23:06:39.010Z,94720.34
2023-04-18T23:09:09.232Z,94726.47
2023-04-18T23:11:37.170Z,94711.03
2023-04-18T23:14:05.065Z,94702.44
2023-04-18T23:16:33.176Z,94720.00
2023-04-18T23:19:03.146Z,94716.53
2023-04-18T23:21:31.923Z,94720.59
2023-04-18T23:24:01.910Z,94719.84
2023-04-18T23:26:29.810Z,94722.84
2023-04-18T23:28:57.791Z,94719.25
2023-04-18T23:31:25.916Z,94707.84
2023-04-18T23:33:54.014Z,94696.72
2023-04-18T23:36:23.477Z,94711.72
2023-04-18T23:38:52.482Z,94712.94
2023-04-18T23:41:20.374Z,94712.03
2023-04-18T23:43:48.555Z,94695.53
2023-04-18T23:46:16.984Z,94698.66
2023-04-18T23:48:44.943Z,94705.44
2023-04-18T23:51:12.844Z,94709.03
2023-04-18T23:53:42.150Z,94696.41
2023-04-18T23:56:10.060Z,94698.22
2023-04-18T23:58:38.147Z,94700.47
